sensor_id;sensor_type;location;lat;lon;timestamp;P1;durP1;ratioP1;P2;durP2;ratioP2
35223;SDS011;21367;51.930;8.112;2023-02-01T00:03:41;26.25;;;4.07;;
35223;SDS011;21367;51.930;8.112;2023-02-01T00:08:45;43.08;;;4.28;;
35223;SDS011;21367;51.930;8.112;2023-02-01T00:13:52;37.75;;;4.07;;
35223;SDS011;21367;51.930;8.112;2023-02-01T00:18:57;45.05;;;4.00;;
35223;SDS011;21367;51.930;8.112;2023-02-01T00:24:03;45.30;;;3.70;;
35223;SDS011;21367;51.930;8.112;2023-02-01T00:29:12;32.00;;;4.35;;
35223;SDS011;21367;51.930;8.112;2023-02-01T00:34:17;43.22;;;4.13;;
35223;SDS011;21367;51.930;8.112;2023-02-01T00:39:21;49.42;;;4.68;;
35223;SDS011;21367;51.930;8.112;2023-02-01T00:44:29;38.03;;;5.13;;
35223;SDS011;21367;51.930;8.112;2023-02-01T00:49:34;35.13;;;5.15;;
35223;SDS011;21367;51.930;8.112;2023-02-01T00:54:38;41.42;;;5.82;;
35223;SDS011;21367;51.930;8.112;2023-02-01T00:59:44;29.38;;;4.80;;
35223;SDS011;21367;51.930;8.112;2023-02-01T01:04:48;35.50;;;6.28;;
35223;SDS011;21367;51.930;8.112;2023-02-01T01:09:52;35.35;;;4.80;;
35223;SDS011;21367;51.930;8.112;2023-02-01T01:14:59;41.30;;;4.97;;
35223;SDS011;21367;51.930;8.112;2023-02-01T01:20:03;42.15;;;4.25;;
35223;SDS011;21367;51.930;8.112;2023-02-01T01:25:08;37.03;;;5.20;;
35223;SDS011;21367;51.930;8.112;2023-02-01T01:30:15;46.80;;;4.47;;
35223;SDS011;21367;51.930;8.112;2023-02-01T01:35:20;34.75;;;4.35;;
35223;SDS011;21367;51.930;8.112;2023-02-01T01:40:24;50.22;;;5.47;;
35223;SDS011;21367;51.930;8.112;2023-02-01T01:45:32;39.05;;;5.90;;
35223;SDS011;21367;51.930;8.112;2023-02-01T01:50:38;26.20;;;3.47;;
35223;SDS011;21367;51.930;8.112;2023-02-01T01:55:48;36.30;;;5.40;;
35223;SDS011;21367;51.930;8.112;2023-02-01T02:00:57;31.10;;;5.13;;
35223;SDS011;21367;51.930;8.112;2023-02-01T02:06:01;48.83;;;5.28;;
35223;SDS011;21367;51.930;8.112;2023-02-01T02:11:09;35.88;;;4.70;;
35223;SDS011;21367;51.930;8.112;2023-02-01T02:16:23;50.70;;;4.75;;
35223;SDS011;21367;51.930;8.112;2023-02-01T02:21:42;39.42;;;4.97;;
35223;SDS011;21367;51.930;8.112;2023-02-01T02:27:06;23.45;;;4.35;;
35223;SDS011;21367;51.930;8.112;2023-02-01T02:38:55;23.15;;;3.50;;
35223;SDS011;21367;51.930;8.112;2023-02-01T02:44:09;36.60;;;4.30;;
35223;SDS011;21367;51.930;8.112;2023-02-01T02:49:31;40.20;;;4.35;;
35223;SDS011;21367;51.930;8.112;2023-02-01T02:54:43;23.10;;;3.45;;
35223;SDS011;21367;51.930;8.112;2023-02-01T02:59:53;40.28;;;4.85;;
35223;SDS011;21367;51.930;8.112;2023-02-01T03:05:12;31.70;;;3.88;;
35223;SDS011;21367;51.930;8.112;2023-02-01T03:10:22;29.33;;;4.13;;
35223;SDS011;21367;51.930;8.112;2023-02-01T03:15:36;31.63;;;4.45;;
35223;SDS011;21367;51.930;8.112;2023-02-01T03:20:44;32.63;;;3.75;;
35223;SDS011;21367;51.930;8.112;2023-02-01T03:25:54;24.27;;;3.38;;
35223;SDS011;21367;51.930;8.112;2023-02-01T03:31:01;39.08;;;4.93;;
35223;SDS011;21367;51.930;8.112;2023-02-01T03:36:09;37.83;;;3.42;;
35223;SDS011;21367;51.930;8.112;2023-02-01T03:41:26;31.08;;;3.10;;
35223;SDS011;21367;51.930;8.112;2023-02-01T03:46:38;32.88;;;3.72;;
35223;SDS011;21367;51.930;8.112;2023-02-01T03:51:48;43.08;;;3.80;;
35223;SDS011;21367;51.930;8.112;2023-02-01T03:56:57;30.60;;;3.10;;
35223;SDS011;21367;51.930;8.112;2023-02-01T04:02:05;23.20;;;2.88;;
35223;SDS011;21367;51.930;8.112;2023-02-01T04:07:09;38.17;;;3.90;;
35223;SDS011;21367;51.930;8.112;2023-02-01T04:12:16;46.30;;;4.05;;
35223;SDS011;21367;51.930;8.112;2023-02-01T04:17:20;40.10;;;4.20;;
35223;SDS011;21367;51.930;8.112;2023-02-01T04:22:23;36.10;;;3.55;;
35223;SDS011;21367;51.930;8.112;2023-02-01T04:27:31;25.33;;;3.53;;
35223;SDS011;21367;51.930;8.112;2023-02-01T04:32:35;39.55;;;3.95;;
35223;SDS011;21367;51.930;8.112;2023-02-01T04:37:39;42.42;;;4.03;;
35223;SDS011;21367;51.930;8.112;2023-02-01T04:42:46;37.53;;;3.53;;
35223;SDS011;21367;51.930;8.112;2023-02-01T04:47:50;36.25;;;4.20;;
35223;SDS011;21367;51.930;8.112;2023-02-01T04:52:54;36.05;;;4.53;;
35223;SDS011;21367;51.930;8.112;2023-02-01T04:58:01;29.38;;;3.83;;
35223;SDS011;21367;51.930;8.112;2023-02-01T05:03:05;46.13;;;4.10;;
35223;SDS011;21367;51.930;8.112;2023-02-01T05:08:09;34.95;;;4.05;;
35223;SDS011;21367;51.930;8.112;2023-02-01T05:13:16;42.25;;;3.75;;
35223;SDS011;21367;51.930;8.112;2023-02-01T05:18:32;33.10;;;3.70;;
35223;SDS011;21367;51.930;8.112;2023-02-01T05:23:36;58.20;;;4.50;;
35223;SDS011;21367;51.930;8.112;2023-02-01T05:29:03;32.58;;;3.40;;
35223;SDS011;21367;51.930;8.112;2023-02-01T05:34:07;33.78;;;3.65;;
35223;SDS011;21367;51.930;8.112;2023-02-01T05:39:11;34.20;;;3.45;;
35223;SDS011;21367;51.930;8.112;2023-02-01T05:44:18;27.60;;;3.42;;
35223;SDS011;21367;51.930;8.112;2023-02-01T05:49:22;34.50;;;3.50;;
35223;SDS011;21367;51.930;8.112;2023-02-01T05:54:26;40.20;;;4.45;;
35223;SDS011;21367;51.930;8.112;2023-02-01T05:59:33;33.53;;;3.53;;
35223;SDS011;21367;51.930;8.112;2023-02-01T06:04:41;24.73;;;3.42;;
35223;SDS011;21367;51.930;8.112;2023-02-01T06:09:45;33.17;;;3.90;;
35223;SDS011;21367;51.930;8.112;2023-02-01T06:14:52;49.58;;;4.68;;
35223;SDS011;21367;51.930;8.112;2023-02-01T06:19:56;38.42;;;4.35;;
35223;SDS011;21367;51.930;8.112;2023-02-01T06:25:00;38.55;;;4.30;;
35223;SDS011;21367;51.930;8.112;2023-02-01T06:30:09;34.70;;;3.95;;
35223;SDS011;21367;51.930;8.112;2023-02-01T06:35:14;32.63;;;4.18;;
35223;SDS011;21367;51.930;8.112;2023-02-01T06:40:19;36.90;;;3.75;;
35223;SDS011;21367;51.930;8.112;2023-02-01T06:45:25;39.50;;;4.03;;
35223;SDS011;21367;51.930;8.112;2023-02-01T06:50:29;48.22;;;6.57;;
35223;SDS011;21367;51.930;8.112;2023-02-01T06:55:33;36.63;;;4.72;;
35223;SDS011;21367;51.930;8.112;2023-02-01T07:00:40;32.63;;;4.97;;
35223;SDS011;21367;51.930;8.112;2023-02-01T07:05:44;31.20;;;4.28;;
35223;SDS011;21367;51.930;8.112;2023-02-01T07:10:47;31.50;;;3.72;;
35223;SDS011;21367;51.930;8.112;2023-02-01T07:15:56;32.90;;;3.90;;
35223;SDS011;21367;51.930;8.112;2023-02-01T07:21:01;39.88;;;4.30;;
35223;SDS011;21367;51.930;8.112;2023-02-01T07:26:05;38.08;;;4.68;;
35223;SDS011;21367;51.930;8.112;2023-02-01T07:31:13;35.53;;;3.85;;
35223;SDS011;21367;51.930;8.112;2023-02-01T07:36:19;35.92;;;4.55;;
35223;SDS011;21367;51.930;8.112;2023-02-01T07:41:23;32.13;;;4.00;;
35223;SDS011;21367;51.930;8.112;2023-02-01T07:46:30;35.60;;;4.55;;
35223;SDS011;21367;51.930;8.112;2023-02-01T07:51:34;32.28;;;4.90;;
35223;SDS011;21367;51.930;8.112;2023-02-01T07:56:38;38.30;;;4.22;;
35223;SDS011;21367;51.930;8.112;2023-02-01T08:01:44;34.13;;;3.42;;
35223;SDS011;21367;51.930;8.112;2023-02-01T08:06:48;31.23;;;5.03;;
35223;SDS011;21367;51.930;8.112;2023-02-01T08:11:52;41.08;;;4.32;;
35223;SDS011;21367;51.930;8.112;2023-02-01T08:16:59;34.83;;;4.28;;
35223;SDS011;21367;51.930;8.112;2023-02-01T08:27:07;29.35;;;4.13;;
35223;SDS011;21367;51.930;8.112;2023-02-01T08:32:15;27.48;;;4.88;;
35223;SDS011;21367;51.930;8.112;2023-02-01T08:37:19;43.28;;;5.03;;
35223;SDS011;21367;51.930;8.112;2023-02-01T08:42:23;43.78;;;6.55;;
35223;SDS011;21367;51.930;8.112;2023-02-01T08:47:42;40.25;;;4.20;;
35223;SDS011;21367;51.930;8.112;2023-02-01T08:52:47;30.70;;;4.28;;
35223;SDS011;21367;51.930;8.112;2023-02-01T08:57:51;48.00;;;5.53;;
35223;SDS011;21367;51.930;8.112;2023-02-01T09:02:58;18.83;;;2.88;;
35223;SDS011;21367;51.930;8.112;2023-02-01T09:08:02;29.42;;;3.42;;
35223;SDS011;21367;51.930;8.112;2023-02-01T09:13:07;32.60;;;3.97;;
35223;SDS011;21367;51.930;8.112;2023-02-01T09:18:14;33.10;;;4.55;;
35223;SDS011;21367;51.930;8.112;2023-02-01T09:23:18;37.90;;;3.78;;
35223;SDS011;21367;51.930;8.112;2023-02-01T09:28:23;35.53;;;5.13;;
35223;SDS011;21367;51.930;8.112;2023-02-01T09:33:29;46.25;;;3.85;;
35223;SDS011;21367;51.930;8.112;2023-02-01T09:43:38;31.27;;;5.13;;
35223;SDS011;21367;51.930;8.112;2023-02-01T09:48:52;38.90;;;4.45;;
35223;SDS011;21367;51.930;8.112;2023-02-01T09:53:59;35.90;;;3.60;;
35223;SDS011;21367;51.930;8.112;2023-02-01T09:59:09;31.15;;;4.50;;
35223;SDS011;21367;51.930;8.112;2023-02-01T10:04:29;31.45;;;3.72;;
35223;SDS011;21367;51.930;8.112;2023-02-01T10:09:41;22.50;;;3.47;;
35223;SDS011;21367;51.930;8.112;2023-02-01T10:14:56;28.80;;;4.53;;
35223;SDS011;21367;51.930;8.112;2023-02-01T10:20:11;35.38;;;4.05;;
35223;SDS011;21367;51.930;8.112;2023-02-01T10:25:22;39.28;;;4.72;;
35223;SDS011;21367;51.930;8.112;2023-02-01T10:30:30;24.80;;;3.28;;
35223;SDS011;21367;51.930;8.112;2023-02-01T10:35:45;35.47;;;4.28;;
35223;SDS011;21367;51.930;8.112;2023-02-01T10:40:50;27.48;;;3.90;;
35223;SDS011;21367;51.930;8.112;2023-02-01T10:45:55;35.13;;;3.60;;
35223;SDS011;21367;51.930;8.112;2023-02-01T10:51:05;23.67;;;3.45;;
35223;SDS011;21367;51.930;8.112;2023-02-01T10:56:11;44.45;;;4.00;;
35223;SDS011;21367;51.930;8.112;2023-02-01T11:01:16;48.73;;;5.17;;
35223;SDS011;21367;51.930;8.112;2023-02-01T11:06:30;26.35;;;4.20;;
35223;SDS011;21367;51.930;8.112;2023-02-01T11:11:52;25.92;;;4.50;;
35223;SDS011;21367;51.930;8.112;2023-02-01T11:16:57;23.85;;;6.07;;
35223;SDS011;21367;51.930;8.112;2023-02-01T11:22:05;22.07;;;4.37;;
35223;SDS011;21367;51.930;8.112;2023-02-01T11:27:12;31.88;;;4.70;;
35223;SDS011;21367;51.930;8.112;2023-02-01T11:32:20;33.88;;;4.75;;
35223;SDS011;21367;51.930;8.112;2023-02-01T11:37:30;38.33;;;4.65;;
35223;SDS011;21367;51.930;8.112;2023-02-01T11:42:37;30.95;;;3.85;;
35223;SDS011;21367;51.930;8.112;2023-02-01T11:47:58;32.85;;;4.53;;
35223;SDS011;21367;51.930;8.112;2023-02-01T11:53:09;31.73;;;4.43;;
35223;SDS011;21367;51.930;8.112;2023-02-01T11:58:31;22.55;;;3.50;;
35223;SDS011;21367;51.930;8.112;2023-02-01T12:04:04;29.08;;;4.60;;
35223;SDS011;21367;51.930;8.112;2023-02-01T12:20:45;43.83;;;5.10;;
35223;SDS011;21367;51.930;8.112;2023-02-01T12:26:06;45.90;;;6.82;;
35223;SDS011;21367;51.930;8.112;2023-02-01T12:31:27;53.60;;;7.15;;
35223;SDS011;21367;51.930;8.112;2023-02-01T12:36:49;37.22;;;5.22;;
35223;SDS011;21367;51.930;8.112;2023-02-01T12:42:03;37.08;;;5.75;;
35223;SDS011;21367;51.930;8.112;2023-02-01T12:47:19;25.05;;;4.20;;
35223;SDS011;21367;51.930;8.112;2023-02-01T12:52:31;34.10;;;5.28;;
35223;SDS011;21367;51.930;8.112;2023-02-01T12:57:43;29.38;;;4.57;;
35223;SDS011;21367;51.930;8.112;2023-02-01T13:02:55;34.60;;;4.82;;
35223;SDS011;21367;51.930;8.112;2023-02-01T13:08:04;24.67;;;3.63;;
35223;SDS011;21367;51.930;8.112;2023-02-01T13:13:18;39.58;;;5.28;;
35223;SDS011;21367;51.930;8.112;2023-02-01T13:18:31;29.40;;;4.05;;
35223;SDS011;21367;51.930;8.112;2023-02-01T13:23:39;23.23;;;3.47;;
35223;SDS011;21367;51.930;8.112;2023-02-01T13:28:49;20.55;;;3.22;;
35223;SDS011;21367;51.930;8.112;2023-02-01T13:34:01;28.90;;;3.80;;
35223;SDS011;21367;51.930;8.112;2023-02-01T13:39:48;31.00;;;4.03;;
35223;SDS011;21367;51.930;8.112;2023-02-01T13:45:12;36.28;;;4.00;;
35223;SDS011;21367;51.930;8.112;2023-02-01T13:50:21;35.90;;;4.57;;
35223;SDS011;21367;51.930;8.112;2023-02-01T13:55:29;30.55;;;4.35;;
35223;SDS011;21367;51.930;8.112;2023-02-01T14:00:39;25.30;;;3.42;;
35223;SDS011;21367;51.930;8.112;2023-02-01T14:05:59;34.45;;;4.10;;
35223;SDS011;21367;51.930;8.112;2023-02-01T14:11:04;28.75;;;3.88;;
35223;SDS011;21367;51.930;8.112;2023-02-01T14:16:13;31.77;;;4.63;;
35223;SDS011;21367;51.930;8.112;2023-02-01T14:21:20;45.88;;;4.80;;
35223;SDS011;21367;51.930;8.112;2023-02-01T14:26:41;35.72;;;4.18;;
35223;SDS011;21367;51.930;8.112;2023-02-01T14:31:51;27.85;;;4.20;;
35223;SDS011;21367;51.930;8.112;2023-02-01T14:37:03;38.97;;;3.85;;
35223;SDS011;21367;51.930;8.112;2023-02-01T14:42:15;33.60;;;3.85;;
35223;SDS011;21367;51.930;8.112;2023-02-01T14:47:32;25.52;;;3.50;;
35223;SDS011;21367;51.930;8.112;2023-02-01T14:52:40;24.02;;;3.20;;
35223;SDS011;21367;51.930;8.112;2023-02-01T14:57:50;14.55;;;1.80;;
35223;SDS011;21367;51.930;8.112;2023-02-01T15:03:15;11.10;;;0.95;;
35223;SDS011;21367;51.930;8.112;2023-02-01T15:08:51;14.48;;;2.58;;
35223;SDS011;21367;51.930;8.112;2023-02-01T15:20:35;33.08;;;4.18;;
35223;SDS011;21367;51.930;8.112;2023-02-01T15:25:39;25.52;;;2.92;;
35223;SDS011;21367;51.930;8.112;2023-02-01T15:30:51;24.00;;;3.70;;
35223;SDS011;21367;51.930;8.112;2023-02-01T15:36:09;27.83;;;3.92;;
35223;SDS011;21367;51.930;8.112;2023-02-01T15:41:17;30.67;;;3.67;;
35223;SDS011;21367;51.930;8.112;2023-02-01T15:46:24;37.05;;;4.65;;
35223;SDS011;21367;51.930;8.112;2023-02-01T15:51:39;21.30;;;2.55;;
35223;SDS011;21367;51.930;8.112;2023-02-01T15:56:49;17.70;;;2.47;;
35223;SDS011;21367;51.930;8.112;2023-02-01T16:01:55;22.85;;;3.05;;
35223;SDS011;21367;51.930;8.112;2023-02-01T16:07:03;13.40;;;2.30;;
35223;SDS011;21367;51.930;8.112;2023-02-01T16:12:29;17.33;;;2.10;;
35223;SDS011;21367;51.930;8.112;2023-02-01T16:17:36;12.95;;;2.20;;
35223;SDS011;21367;51.930;8.112;2023-02-01T16:22:42;14.95;;;2.47;;
35223;SDS011;21367;51.930;8.112;2023-02-01T16:27:47;24.40;;;2.60;;
35223;SDS011;21367;51.930;8.112;2023-02-01T16:32:51;21.13;;;3.03;;
35223;SDS011;21367;51.930;8.112;2023-02-01T16:38:00;16.52;;;2.05;;
35223;SDS011;21367;51.930;8.112;2023-02-01T16:43:11;13.27;;;1.50;;
35223;SDS011;21367;51.930;8.112;2023-02-01T16:48:18;19.63;;;2.20;;
35223;SDS011;21367;51.930;8.112;2023-02-01T16:53:28;26.20;;;3.63;;
35223;SDS011;21367;51.930;8.112;2023-02-01T16:58:33;17.70;;;3.13;;
35223;SDS011;21367;51.930;8.112;2023-02-01T17:03:40;21.88;;;2.72;;
35223;SDS011;21367;51.930;8.112;2023-02-01T17:08:50;25.30;;;2.95;;
35223;SDS011;21367;51.930;8.112;2023-02-01T17:13:57;33.50;;;4.05;;
35223;SDS011;21367;51.930;8.112;2023-02-01T17:19:13;18.70;;;3.65;;
35223;SDS011;21367;51.930;8.112;2023-02-01T17:24:24;27.30;;;3.75;;
35223;SDS011;21367;51.930;8.112;2023-02-01T17:29:32;16.98;;;3.28;;
35223;SDS011;21367;51.930;8.112;2023-02-01T17:34:36;32.72;;;3.92;;
35223;SDS011;21367;51.930;8.112;2023-02-01T17:39:43;23.50;;;3.45;;
35223;SDS011;21367;51.930;8.112;2023-02-01T17:45:00;17.90;;;3.40;;
35223;SDS011;21367;51.930;8.112;2023-02-01T17:50:05;30.08;;;3.30;;
35223;SDS011;21367;51.930;8.112;2023-02-01T17:55:17;33.63;;;3.65;;
35223;SDS011;21367;51.930;8.112;2023-02-01T18:00:24;27.58;;;3.15;;
35223;SDS011;21367;51.930;8.112;2023-02-01T18:05:28;28.35;;;2.97;;
35223;SDS011;21367;51.930;8.112;2023-02-01T18:10:42;21.75;;;2.95;;
35223;SDS011;21367;51.930;8.112;2023-02-01T18:15:47;21.02;;;4.45;;
35223;SDS011;21367;51.930;8.112;2023-02-01T18:20:52;33.13;;;4.45;;
35223;SDS011;21367;51.930;8.112;2023-02-01T18:25:59;19.17;;;3.42;;
35223;SDS011;21367;51.930;8.112;2023-02-01T18:31:04;27.67;;;4.28;;
35223;SDS011;21367;51.930;8.112;2023-02-01T18:41:19;20.70;;;3.13;;
35223;SDS011;21367;51.930;8.112;2023-02-01T18:46:23;21.75;;;2.92;;
35223;SDS011;21367;51.930;8.112;2023-02-01T18:51:28;23.13;;;2.75;;
35223;SDS011;21367;51.930;8.112;2023-02-01T18:56:35;17.55;;;2.88;;
35223;SDS011;21367;51.930;8.112;2023-02-01T19:01:39;23.10;;;3.08;;
35223;SDS011;21367;51.930;8.112;2023-02-01T19:06:43;21.77;;;3.03;;
35223;SDS011;21367;51.930;8.112;2023-02-01T19:11:49;24.77;;;2.95;;
35223;SDS011;21367;51.930;8.112;2023-02-01T19:16:54;24.58;;;3.83;;
35223;SDS011;21367;51.930;8.112;2023-02-01T19:21:58;24.50;;;4.05;;
35223;SDS011;21367;51.930;8.112;2023-02-01T19:27:05;22.65;;;3.35;;
35223;SDS011;21367;51.930;8.112;2023-02-01T19:32:10;20.10;;;3.30;;
35223;SDS011;21367;51.930;8.112;2023-02-01T19:37:15;22.08;;;2.97;;
35223;SDS011;21367;51.930;8.112;2023-02-01T19:42:22;24.50;;;2.88;;
35223;SDS011;21367;51.930;8.112;2023-02-01T19:47:27;19.80;;;3.30;;
35223;SDS011;21367;51.930;8.112;2023-02-01T19:52:31;27.15;;;2.78;;
35223;SDS011;21367;51.930;8.112;2023-02-01T19:57:38;24.27;;;2.55;;
35223;SDS011;21367;51.930;8.112;2023-02-01T20:02:43;15.32;;;2.95;;
35223;SDS011;21367;51.930;8.112;2023-02-01T20:07:47;15.90;;;2.45;;
35223;SDS011;21367;51.930;8.112;2023-02-01T20:12:53;12.98;;;2.22;;
35223;SDS011;21367;51.930;8.112;2023-02-01T20:17:58;15.15;;;1.92;;
35223;SDS011;21367;51.930;8.112;2023-02-01T20:23:03;22.20;;;2.58;;
35223;SDS011;21367;51.930;8.112;2023-02-01T20:28:17;16.00;;;2.30;;
35223;SDS011;21367;51.930;8.112;2023-02-01T20:33:23;16.77;;;1.80;;
35223;SDS011;21367;51.930;8.112;2023-02-01T20:38:28;17.45;;;2.20;;
35223;SDS011;21367;51.930;8.112;2023-02-01T20:43:37;21.48;;;2.25;;
35223;SDS011;21367;51.930;8.112;2023-02-01T20:48:42;18.95;;;2.33;;
35223;SDS011;21367;51.930;8.112;2023-02-01T20:53:47;37.55;;;3.35;;
35223;SDS011;21367;51.930;8.112;2023-02-01T20:58:54;30.73;;;2.83;;
35223;SDS011;21367;51.930;8.112;2023-02-01T21:04:02;21.90;;;3.15;;
35223;SDS011;21367;51.930;8.112;2023-02-01T21:09:07;15.02;;;2.22;;
35223;SDS011;21367;51.930;8.112;2023-02-01T21:14:13;22.25;;;2.97;;
35223;SDS011;21367;51.930;8.112;2023-02-01T21:19:17;21.10;;;3.15;;
35223;SDS011;21367;51.930;8.112;2023-02-01T21:24:21;26.70;;;2.42;;
35223;SDS011;21367;51.930;8.112;2023-02-01T21:29:28;22.27;;;3.05;;
35223;SDS011;21367;51.930;8.112;2023-02-01T21:39:35;22.73;;;2.53;;
35223;SDS011;21367;51.930;8.112;2023-02-01T21:44:41;23.52;;;2.70;;
35223;SDS011;21367;51.930;8.112;2023-02-01T21:49:48;25.80;;;3.38;;
35223;SDS011;21367;51.930;8.112;2023-02-01T21:54:52;24.90;;;3.03;;
35223;SDS011;21367;51.930;8.112;2023-02-01T22:00:01;26.65;;;4.05;;
35223;SDS011;21367;51.930;8.112;2023-02-01T22:05:07;28.48;;;4.15;;
35223;SDS011;21367;51.930;8.112;2023-02-01T22:10:11;33.08;;;3.85;;
35223;SDS011;21367;51.930;8.112;2023-02-01T22:15:18;20.45;;;3.33;;
35223;SDS011;21367;51.930;8.112;2023-02-01T22:20:23;19.13;;;3.55;;
35223;SDS011;21367;51.930;8.112;2023-02-01T22:25:28;26.35;;;3.83;;
35223;SDS011;21367;51.930;8.112;2023-02-01T22:35:41;37.60;;;3.95;;
35223;SDS011;21367;51.930;8.112;2023-02-01T22:40:47;28.35;;;3.53;;
35223;SDS011;21367;51.930;8.112;2023-02-01T22:46:00;30.15;;;3.65;;
35223;SDS011;21367;51.930;8.112;2023-02-01T22:51:05;46.92;;;4.05;;
35223;SDS011;21367;51.930;8.112;2023-02-01T22:56:11;41.67;;;3.63;;
35223;SDS011;21367;51.930;8.112;2023-02-01T23:01:19;33.97;;;4.90;;
35223;SDS011;21367;51.930;8.112;2023-02-01T23:06:22;45.42;;;3.33;;
35223;SDS011;21367;51.930;8.112;2023-02-01T23:11:26;37.83;;;4.28;;
35223;SDS011;21367;51.930;8.112;2023-02-01T23:16:33;36.53;;;3.53;;
35223;SDS011;21367;51.930;8.112;2023-02-01T23:21:38;20.58;;;2.95;;
35223;SDS011;21367;51.930;8.112;2023-02-01T23:26:42;23.52;;;3.15;;
35223;SDS011;21367;51.930;8.112;2023-02-01T23:31:48;30.13;;;3.40;;
35223;SDS011;21367;51.930;8.112;2023-02-01T23:41:56;27.63;;;3.00;;
35223;SDS011;21367;51.930;8.112;2023-02-01T23:47:03;33.92;;;4.10;;
35223;SDS011;21367;51.930;8.112;2023-02-01T23:52:07;26.15;;;2.83;;
35223;SDS011;21367;51.930;8.112;2023-02-01T23:57:12;27.75;;;3.05;;
